Burkeville, VA (23922)

10:31 AM EDT on October 23, 2014 (GMT -0400)
Far West End | Change Station
CLOSE
Current Station
Personal Weather Station
Location: Crewe, VA
Elevation: 502 ft
Nearby Weather Stations

Elev 502 ft 37.19 °N, 78.14 °W | Updated 43 seconds ago

Clear
Clear
57.1 °F
Feels Like 57.1 °F
N
1.0
Wind Variable Wind from WNW
Gusts 4.0 mph

Today
High -- | Low -- °F
--% Chance of Precip.
Yesterday
High -- | Low -- °F
Precip. -- in
7:28 AM 6:25 PM
Waning Crescent, 0% visible
Pressure 29.97 in
Visibility 10.0 miles
Clouds Clear
Dew Point 47 °F
Humidity 68%
Rainfall 0.00 in
Snow Depth Not available.
UV 2 out of 12
Pollen 2.10 out of 12
Air Quality Not available.
Flu Activity Local Activity
METAR KFVX 231355Z AUTO 30004KT 10SM CLR 13/05 A2997 RMK AO2

More Conditions Fewer Conditions

Pressure 29.97 in
Visibility 10.0 miles
Clouds Clear
Dew Point 47 °F
Humidity 68%
Rainfall 0.00 in
Snow Depth Not available.
UV 2 out of 12
Pollen 2.10 out of 12
Air Quality Not available.
Flu Activity Local Activity
METAR KFVX 231355Z AUTO 30004KT 10SM CLR 13/05 A2997 RMK AO2

More Conditions Fewer Conditions

10-Day Weather Forecast

Almanac

Astronomy

Oct. 23, 2014 Rise Set
Actual Time 7:28 AM EDT 6:25 PM EDT
Civil Twilight 7:01 AM EDT 6:51 PM EDT
Nautical Twilight 6:31 AM EDT 7:22 PM EDT
Astronomical Twilight 6:01 AM EDT 7:52 PM EDT
Moon 7:06 AM EDT 6:25 PM EDT
Length of Visible Light 11h 50m
Length of Day
10h 57m
Tomorrow will be 2m 12s shorter.
Waning Crescent, 0% of the Moon is Illuminated
Today
Waning Crescent
Oct 23
New
Oct 30
First Quarter
Nov 6
Full
Nov 14
Last Quarter

Today's Extremes

State Highs State Lows

Community

WunderPhotos

Upload Photos

1,764,268 photos uploaded!

WunderBlogs® & News

Nearby

Snow Depth

Station Depth Elevation
No new snow has been reported.

Earthquake Activity

City Distance Mag. Time & Date
No recent earthquake activity has been reported nearby.
Minimum magnitude displayed is 2.5.

Coastal Water Temperatures

Place Temperature
No Stations Reporting

Nearby Weather Stations